sensor_id;sensor_type;location;lat;lon;timestamp;temperature;humidity
76099;DHT22;64828;49.956;8.636;2023-08-31T00:00:08;13.20;92.30
76099;DHT22;64828;49.956;8.636;2023-08-31T00:00:25;13.20;92.30
76099;DHT22;64828;49.956;8.636;2023-08-31T00:00:42;13.10;92.30
76099;DHT22;64828;49.956;8.636;2023-08-31T00:01:01;13.10;92.30
76099;DHT22;64828;49.956;8.636;2023-08-31T00:01:19;13.10;92.20
76099;DHT22;64828;49.956;8.636;2023-08-31T00:01:34;13.10;92.20
76099;DHT22;64828;49.956;8.636;2023-08-31T00:01:50;13.10;92.20
76099;DHT22;64828;49.956;8.636;2023-08-31T00:02:08;13.10;92.20
76099;DHT22;64828;49.956;8.636;2023-08-31T00:02:24;13.10;92.20
76099;DHT22;64828;49.956;8.636;2023-08-31T00:02:40;13.10;92.30
76099;DHT22;64828;49.956;8.636;2023-08-31T00:02:56;13.10;92.30
76099;DHT22;64828;49.956;8.636;2023-08-31T00:03:12;13.10;92.30
76099;DHT22;64828;49.956;8.636;2023-08-31T00:03:30;13.10;92.30
76099;DHT22;64828;49.956;8.636;2023-08-31T00:03:45;13.10;92.30
76099;DHT22;64828;49.956;8.636;2023-08-31T00:04:01;13.10;92.30
76099;DHT22;64828;49.956;8.636;2023-08-31T00:04:16;13.10;92.30
76099;DHT22;64828;49.956;8.636;2023-08-31T00:04:32;13.10;92.30
76099;DHT22;64828;49.956;8.636;2023-08-31T00:04:50;13.10;92.30
76099;DHT22;64828;49.956;8.636;2023-08-31T00:05:06;13.00;92.30
76099;DHT22;64828;49.956;8.636;2023-08-31T00:05:22;13.10;92.30
76099;DHT22;64828;49.956;8.636;2023-08-31T00:05:41;13.10;92.30
76099;DHT22;64828;49.956;8.636;2023-08-31T00:05:57;13.10;92.30
76099;DHT22;64828;49.956;8.636;2023-08-31T00:06:12;13.10;92.40
76099;DHT22;64828;49.956;8.636;2023-08-31T00:06:28;13.10;92.40
76099;DHT22;64828;49.956;8.636;2023-08-31T00:06:44;13.00;92.40
76099;DHT22;64828;49.956;8.636;2023-08-31T00:07:00;13.10;92.40
76099;DHT22;64828;49.956;8.636;2023-08-31T00:07:16;13.10;92.40
76099;DHT22;64828;49.956;8.636;2023-08-31T00:07:31;13.10;92.40
76099;DHT22;64828;49.956;8.636;2023-08-31T00:07:47;13.10;92.40
76099;DHT22;64828;49.956;8.636;2023-08-31T00:08:03;13.10;92.40
76099;DHT22;64828;49.956;8.636;2023-08-31T00:08:18;13.10;92.50
76099;DHT22;64828;49.956;8.636;2023-08-31T00:08:37;13.10;92.50
76099;DHT22;64828;49.956;8.636;2023-08-31T00:08:53;13.10;92.50
76099;DHT22;64828;49.956;8.636;2023-08-31T00:09:08;13.10;92.50
76099;DHT22;64828;49.956;8.636;2023-08-31T00:09:24;13.10;92.50
76099;DHT22;64828;49.956;8.636;2023-08-31T00:09:40;13.10;92.50
76099;DHT22;64828;49.956;8.636;2023-08-31T00:09:55;13.10;92.60
76099;DHT22;64828;49.956;8.636;2023-08-31T00:10:11;13.10;92.60
76099;DHT22;64828;49.956;8.636;2023-08-31T00:10:27;13.10;92.60
76099;DHT22;64828;49.956;8.636;2023-08-31T00:10:42;13.10;92.60
76099;DHT22;64828;49.956;8.636;2023-08-31T00:10:59;13.10;92.60
76099;DHT22;64828;49.956;8.636;2023-08-31T00:11:15;13.10;92.60
76099;DHT22;64828;49.956;8.636;2023-08-31T00:11:31;13.10;92.60
76099;DHT22;64828;49.956;8.636;2023-08-31T00:11:46;13.10;92.60
76099;DHT22;64828;49.956;8.636;2023-08-31T00:12:02;13.10;92.60
76099;DHT22;64828;49.956;8.636;2023-08-31T00:12:18;13.10;92.60
76099;DHT22;64828;49.956;8.636;2023-08-31T00:12:34;13.10;92.60
76099;DHT22;64828;49.956;8.636;2023-08-31T00:12:50;13.10;92.60
76099;DHT22;64828;49.956;8.636;2023-08-31T00:13:06;13.10;92.60
76099;DHT22;64828;49.956;8.636;2023-08-31T00:13:24;13.10;92.70
76099;DHT22;64828;49.956;8.636;2023-08-31T00:13:42;13.10;92.70
76099;DHT22;64828;49.956;8.636;2023-08-31T00:13:57;13.10;92.70
76099;DHT22;64828;49.956;8.636;2023-08-31T00:14:13;13.10;92.70
76099;DHT22;64828;49.956;8.636;2023-08-31T00:14:29;13.10;92.70
76099;DHT22;64828;49.956;8.636;2023-08-31T00:14:44;13.10;92.70
76099;DHT22;64828;49.956;8.636;2023-08-31T00:15:00;13.10;92.70
76099;DHT22;64828;49.956;8.636;2023-08-31T00:15:16;13.10;92.70
76099;DHT22;64828;49.956;8.636;2023-08-31T00:15:31;13.10;92.70
76099;DHT22;64828;49.956;8.636;2023-08-31T00:15:54;13.10;92.70
76099;DHT22;64828;49.956;8.636;2023-08-31T00:16:11;13.10;92.70
76099;DHT22;64828;49.956;8.636;2023-08-31T00:16:27;13.10;92.70
76099;DHT22;64828;49.956;8.636;2023-08-31T00:16:43;13.10;92.70
76099;DHT22;64828;49.956;8.636;2023-08-31T00:17:01;13.10;92.70
76099;DHT22;64828;49.956;8.636;2023-08-31T00:17:16;13.10;92.70
76099;DHT22;64828;49.956;8.636;2023-08-31T00:17:33;13.10;92.70
76099;DHT22;64828;49.956;8.636;2023-08-31T00:17:48;13.10;92.70
76099;DHT22;64828;49.956;8.636;2023-08-31T00:18:04;13.10;92.70
76099;DHT22;64828;49.956;8.636;2023-08-31T00:18:20;13.10;92.70
76099;DHT22;64828;49.956;8.636;2023-08-31T00:18:36;13.10;92.70
76099;DHT22;64828;49.956;8.636;2023-08-31T00:18:51;13.10;92.70
76099;DHT22;64828;49.956;8.636;2023-08-31T00:19:07;13.10;92.70
76099;DHT22;64828;49.956;8.636;2023-08-31T00:19:22;13.10;92.70
76099;DHT22;64828;49.956;8.636;2023-08-31T00:19:38;13.10;92.70
76099;DHT22;64828;49.956;8.636;2023-08-31T00:19:54;13.10;92.70
76099;DHT22;64828;49.956;8.636;2023-08-31T00:20:10;13.10;92.70
76099;DHT22;64828;49.956;8.636;2023-08-31T00:20:28;13.10;92.70
76099;DHT22;64828;49.956;8.636;2023-08-31T00:20:45;13.10;92.60
76099;DHT22;64828;49.956;8.636;2023-08-31T00:21:01;13.10;92.60
76099;DHT22;64828;49.956;8.636;2023-08-31T00:21:17;13.10;92.70
76099;DHT22;64828;49.956;8.636;2023-08-31T00:21:32;13.10;92.60
76099;DHT22;64828;49.956;8.636;2023-08-31T00:21:48;13.10;92.60
76099;DHT22;64828;49.956;8.636;2023-08-31T00:22:04;13.10;92.60
76099;DHT22;64828;49.956;8.636;2023-08-31T00:22:19;13.10;92.60
76099;DHT22;64828;49.956;8.636;2023-08-31T00:22:35;13.10;92.60
76099;DHT22;64828;49.956;8.636;2023-08-31T00:22:50;13.10;92.60
76099;DHT22;64828;49.956;8.636;2023-08-31T00:23:06;13.10;92.60
76099;DHT22;64828;49.956;8.636;2023-08-31T00:23:21;13.10;92.60
76099;DHT22;64828;49.956;8.636;2023-08-31T00:23:37;13.10;92.60
76099;DHT22;64828;49.956;8.636;2023-08-31T00:23:53;13.10;92.50
76099;DHT22;64828;49.956;8.636;2023-08-31T00:24:09;13.10;92.50
76099;DHT22;64828;49.956;8.636;2023-08-31T00:24:25;13.10;92.50
76099;DHT22;64828;49.956;8.636;2023-08-31T00:24:45;13.10;92.50
76099;DHT22;64828;49.956;8.636;2023-08-31T00:25:00;13.10;92.50
76099;DHT22;64828;49.956;8.636;2023-08-31T00:25:16;13.00;92.50
76099;DHT22;64828;49.956;8.636;2023-08-31T00:25:32;13.10;92.50
76099;DHT22;64828;49.956;8.636;2023-08-31T00:25:48;13.10;92.50
76099;DHT22;64828;49.956;8.636;2023-08-31T00:26:03;13.10;92.50
76099;DHT22;64828;49.956;8.636;2023-08-31T00:26:20;13.10;92.50
76099;DHT22;64828;49.956;8.636;2023-08-31T00:26:36;13.10;92.40
76099;DHT22;64828;49.956;8.636;2023-08-31T00:26:56;13.10;92.40
76099;DHT22;64828;49.956;8.636;2023-08-31T00:27:11;13.00;92.40
76099;DHT22;64828;49.956;8.636;2023-08-31T00:27:29;13.10;92.40
76099;DHT22;64828;49.956;8.636;2023-08-31T00:27:45;13.00;92.40
76099;DHT22;64828;49.956;8.636;2023-08-31T00:28:04;13.00;92.40
76099;DHT22;64828;49.956;8.636;2023-08-31T00:28:20;13.10;92.40
76099;DHT22;64828;49.956;8.636;2023-08-31T00:28:35;13.10;92.30
76099;DHT22;64828;49.956;8.636;2023-08-31T00:28:52;13.00;92.30
76099;DHT22;64828;49.956;8.636;2023-08-31T00:29:09;13.00;92.30
76099;DHT22;64828;49.956;8.636;2023-08-31T00:29:26;13.00;92.30
76099;DHT22;64828;49.956;8.636;2023-08-31T00:29:41;13.00;92.30
76099;DHT22;64828;49.956;8.636;2023-08-31T00:29:58;13.00;92.30
76099;DHT22;64828;49.956;8.636;2023-08-31T00:30:14;13.00;92.20
76099;DHT22;64828;49.956;8.636;2023-08-31T00:30:31;13.00;92.20
76099;DHT22;64828;49.956;8.636;2023-08-31T00:30:47;13.00;92.20
76099;DHT22;64828;49.956;8.636;2023-08-31T00:31:03;13.00;92.20
76099;DHT22;64828;49.956;8.636;2023-08-31T00:31:19;13.00;92.20
76099;DHT22;64828;49.956;8.636;2023-08-31T00:31:37;13.00;92.20
76099;DHT22;64828;49.956;8.636;2023-08-31T00:31:53;13.00;92.20
76099;DHT22;64828;49.956;8.636;2023-08-31T00:32:08;13.00;92.20
76099;DHT22;64828;49.956;8.636;2023-08-31T00:32:24;13.00;92.20
76099;DHT22;64828;49.956;8.636;2023-08-31T00:32:40;13.00;92.20
76099;DHT22;64828;49.956;8.636;2023-08-31T00:32:58;13.00;92.20
76099;DHT22;64828;49.956;8.636;2023-08-31T00:33:16;13.00;92.10
76099;DHT22;64828;49.956;8.636;2023-08-31T00:33:32;13.00;92.10
76099;DHT22;64828;49.956;8.636;2023-08-31T00:33:48;13.00;92.10
76099;DHT22;64828;49.956;8.636;2023-08-31T00:34:04;13.00;92.10
76099;DHT22;64828;49.956;8.636;2023-08-31T00:34:20;13.00;92.10
76099;DHT22;64828;49.956;8.636;2023-08-31T00:34:35;13.00;92.10
76099;DHT22;64828;49.956;8.636;2023-08-31T00:34:51;13.00;92.10
76099;DHT22;64828;49.956;8.636;2023-08-31T00:35:07;13.00;92.10
76099;DHT22;64828;49.956;8.636;2023-08-31T00:35:23;13.00;92.10
76099;DHT22;64828;49.956;8.636;2023-08-31T00:35:39;13.00;92.10
76099;DHT22;64828;49.956;8.636;2023-08-31T00:36:00;13.00;92.10
76099;DHT22;64828;49.956;8.636;2023-08-31T00:36:18;13.00;92.10
76099;DHT22;64828;49.956;8.636;2023-08-31T00:36:34;13.00;92.10
76099;DHT22;64828;49.956;8.636;2023-08-31T00:36:49;13.00;92.10
76099;DHT22;64828;49.956;8.636;2023-08-31T00:37:05;13.00;92.10
76099;DHT22;64828;49.956;8.636;2023-08-31T00:37:20;12.90;92.00
76099;DHT22;64828;49.956;8.636;2023-08-31T00:37:36;13.00;92.00
76099;DHT22;64828;49.956;8.636;2023-08-31T00:37:55;13.00;92.00
76099;DHT22;64828;49.956;8.636;2023-08-31T00:38:14;13.00;92.00
76099;DHT22;64828;49.956;8.636;2023-08-31T00:38:30;13.00;92.00
76099;DHT22;64828;49.956;8.636;2023-08-31T00:38:46;13.00;92.00
76099;DHT22;64828;49.956;8.636;2023-08-31T00:39:04;13.00;91.90
76099;DHT22;64828;49.956;8.636;2023-08-31T00:39:26;12.90;91.90
76099;DHT22;64828;49.956;8.636;2023-08-31T00:39:43;13.00;91.80
76099;DHT22;64828;49.956;8.636;2023-08-31T00:39:59;12.90;91.80
76099;DHT22;64828;49.956;8.636;2023-08-31T00:40:16;12.90;91.80
76099;DHT22;64828;49.956;8.636;2023-08-31T00:40:31;12.90;91.80
76099;DHT22;64828;49.956;8.636;2023-08-31T00:40:48;12.90;91.70
76099;DHT22;64828;49.956;8.636;2023-08-31T00:41:04;13.00;91.70
76099;DHT22;64828;49.956;8.636;2023-08-31T00:41:19;13.00;91.70
76099;DHT22;64828;49.956;8.636;2023-08-31T00:41:35;13.00;91.70
76099;DHT22;64828;49.956;8.636;2023-08-31T00:41:52;13.00;91.60
76099;DHT22;64828;49.956;8.636;2023-08-31T00:42:08;13.00;91.60
76099;DHT22;64828;49.956;8.636;2023-08-31T00:42:24;13.00;91.60
76099;DHT22;64828;49.956;8.636;2023-08-31T00:42:40;13.00;91.50
76099;DHT22;64828;49.956;8.636;2023-08-31T00:42:57;13.00;91.50
76099;DHT22;64828;49.956;8.636;2023-08-31T00:43:15;13.00;91.50
76099;DHT22;64828;49.956;8.636;2023-08-31T00:43:31;13.00;91.50
76099;DHT22;64828;49.956;8.636;2023-08-31T00:43:47;13.00;91.40
76099;DHT22;64828;49.956;8.636;2023-08-31T00:44:03;13.00;91.40
76099;DHT22;64828;49.956;8.636;2023-08-31T00:44:20;13.00;91.50
76099;DHT22;64828;49.956;8.636;2023-08-31T00:44:36;13.00;91.40
76099;DHT22;64828;49.956;8.636;2023-08-31T00:44:52;13.00;91.40
76099;DHT22;64828;49.956;8.636;2023-08-31T00:45:08;12.90;91.40
76099;DHT22;64828;49.956;8.636;2023-08-31T00:45:24;12.90;91.40
76099;DHT22;64828;49.956;8.636;2023-08-31T00:45:39;13.00;91.40
76099;DHT22;64828;49.956;8.636;2023-08-31T00:45:56;12.90;91.40
76099;DHT22;64828;49.956;8.636;2023-08-31T00:46:14;12.90;91.40
76099;DHT22;64828;49.956;8.636;2023-08-31T00:46:30;12.90;91.40
76099;DHT22;64828;49.956;8.636;2023-08-31T00:46:46;12.90;91.40
76099;DHT22;64828;49.956;8.636;2023-08-31T00:47:02;12.90;91.40
76099;DHT22;64828;49.956;8.636;2023-08-31T00:47:18;12.90;91.40
76099;DHT22;64828;49.956;8.636;2023-08-31T00:47:34;13.00;91.40
76099;DHT22;64828;49.956;8.636;2023-08-31T00:47:50;12.90;91.40
76099;DHT22;64828;49.956;8.636;2023-08-31T00:48:06;12.90;91.40
76099;DHT22;64828;49.956;8.636;2023-08-31T00:48:22;12.90;91.40
76099;DHT22;64828;49.956;8.636;2023-08-31T00:48:38;12.90;91.40
76099;DHT22;64828;49.956;8.636;2023-08-31T00:48:54;12.90;91.40
76099;DHT22;64828;49.956;8.636;2023-08-31T00:49:10;12.90;91.40
76099;DHT22;64828;49.956;8.636;2023-08-31T00:49:25;12.90;91.40
76099;DHT22;64828;49.956;8.636;2023-08-31T00:49:41;12.90;91.40
76099;DHT22;64828;49.956;8.636;2023-08-31T00:49:56;12.90;91.40
76099;DHT22;64828;49.956;8.636;2023-08-31T00:50:13;12.90;91.40
76099;DHT22;64828;49.956;8.636;2023-08-31T00:50:28;12.90;91.40
76099;DHT22;64828;49.956;8.636;2023-08-31T00:50:46;13.00;91.40
76099;DHT22;64828;49.956;8.636;2023-08-31T00:51:01;12.90;91.30
76099;DHT22;64828;49.956;8.636;2023-08-31T00:51:18;12.90;91.30
76099;DHT22;64828;49.956;8.636;2023-08-31T00:51:33;12.90;91.30
76099;DHT22;64828;49.956;8.636;2023-08-31T00:51:49;12.90;91.30
76099;DHT22;64828;49.956;8.636;2023-08-31T00:52:07;12.90;91.30
76099;DHT22;64828;49.956;8.636;2023-08-31T00:52:22;12.90;91.20
76099;DHT22;64828;49.956;8.636;2023-08-31T00:52:38;12.90;91.20
76099;DHT22;64828;49.956;8.636;2023-08-31T00:52:53;12.90;91.20
76099;DHT22;64828;49.956;8.636;2023-08-31T00:53:09;12.90;91.20
76099;DHT22;64828;49.956;8.636;2023-08-31T00:53:25;12.90;91.20
76099;DHT22;64828;49.956;8.636;2023-08-31T00:53:40;12.90;91.10
76099;DHT22;64828;49.956;8.636;2023-08-31T00:53:57;12.90;91.10
76099;DHT22;64828;49.956;8.636;2023-08-31T00:54:15;12.90;91.10
76099;DHT22;64828;49.956;8.636;2023-08-31T00:54:31;12.90;91.10
76099;DHT22;64828;49.956;8.636;2023-08-31T00:54:50;12.90;91.10
76099;DHT22;64828;49.956;8.636;2023-08-31T00:55:07;12.90;91.10
76099;DHT22;64828;49.956;8.636;2023-08-31T00:55:24;12.90;91.00
76099;DHT22;64828;49.956;8.636;2023-08-31T00:55:39;12.90;91.00
76099;DHT22;64828;49.956;8.636;2023-08-31T00:55:55;12.90;91.00
76099;DHT22;64828;49.956;8.636;2023-08-31T00:56:12;12.90;91.00
76099;DHT22;64828;49.956;8.636;2023-08-31T00:56:28;12.90;91.00
76099;DHT22;64828;49.956;8.636;2023-08-31T00:56:44;12.90;91.00
76099;DHT22;64828;49.956;8.636;2023-08-31T00:57:00;12.90;91.00
76099;DHT22;64828;49.956;8.636;2023-08-31T00:57:16;12.90;91.00
76099;DHT22;64828;49.956;8.636;2023-08-31T00:57:31;12.90;91.00
76099;DHT22;64828;49.956;8.636;2023-08-31T00:57:47;12.90;91.00
76099;DHT22;64828;49.956;8.636;2023-08-31T00:58:02;12.90;91.00
76099;DHT22;64828;49.956;8.636;2023-08-31T00:58:18;12.90;91.00
76099;DHT22;64828;49.956;8.636;2023-08-31T00:58:34;12.90;91.00
76099;DHT22;64828;49.956;8.636;2023-08-31T00:58:50;12.90;91.00
76099;DHT22;64828;49.956;8.636;2023-08-31T00:59:06;12.90;90.90
76099;DHT22;64828;49.956;8.636;2023-08-31T00:59:21;12.80;90.90
76099;DHT22;64828;49.956;8.636;2023-08-31T00:59:37;12.80;90.90
76099;DHT22;64828;49.956;8.636;2023-08-31T00:59:52;12.80;90.90
76099;DHT22;64828;49.956;8.636;2023-08-31T01:00:11;12.80;90.90
76099;DHT22;64828;49.956;8.636;2023-08-31T01:00:39;12.80;90.90
76099;DHT22;64828;49.956;8.636;2023-08-31T01:01:31;12.80;91.00
76099;DHT22;64828;49.956;8.636;2023-08-31T01:02:55;12.80;90.90
76099;DHT22;64828;49.956;8.636;2023-08-31T01:03:35;12.80;91.00
76099;DHT22;64828;49.956;8.636;2023-08-31T01:04:00;12.80;91.00
76099;DHT22;64828;49.956;8.636;2023-08-31T01:05:14;12.70;91.00
76099;DHT22;64828;49.956;8.636;2023-08-31T01:05:37;12.70;91.00
76099;DHT22;64828;49.956;8.636;2023-08-31T01:06:12;12.70;91.00
76099;DHT22;64828;49.956;8.636;2023-08-31T01:07:00;12.70;91.10
76099;DHT22;64828;49.956;8.636;2023-08-31T01:08:52;12.70;91.10
76099;DHT22;64828;49.956;8.636;2023-08-31T01:09:34;12.60;91.10
76099;DHT22;64828;49.956;8.636;2023-08-31T01:10:01;12.60;91.10
76099;DHT22;64828;49.956;8.636;2023-08-31T01:10:43;12.60;91.10
76099;DHT22;64828;49.956;8.636;2023-08-31T01:12:10;12.60;91.10
76099;DHT22;64828;49.956;8.636;2023-08-31T01:13:21;12.50;91.10
76099;DHT22;64828;49.956;8.636;2023-08-31T01:13:41;12.50;91.10
76099;DHT22;64828;49.956;8.636;2023-08-31T01:14:02;12.50;91.20
76099;DHT22;64828;49.956;8.636;2023-08-31T01:14:27;12.50;91.20
76099;DHT22;64828;49.956;8.636;2023-08-31T01:15:04;12.50;91.20
76099;DHT22;64828;49.956;8.636;2023-08-31T01:15:22;12.50;91.20
76099;DHT22;64828;49.956;8.636;2023-08-31T01:15:41;12.40;91.20
76099;DHT22;64828;49.956;8.636;2023-08-31T01:16:00;12.40;91.20
76099;DHT22;64828;49.956;8.636;2023-08-31T01:16:19;12.40;91.10
76099;DHT22;64828;49.956;8.636;2023-08-31T01:16:36;12.40;91.10
76099;DHT22;64828;49.956;8.636;2023-08-31T01:16:54;12.40;91.10
76099;DHT22;64828;49.956;8.636;2023-08-31T01:17:12;12.30;91.10
76099;DHT22;64828;49.956;8.636;2023-08-31T01:17:30;12.30;91.10
76099;DHT22;64828;49.956;8.636;2023-08-31T01:17:49;12.30;91.10
76099;DHT22;64828;49.956;8.636;2023-08-31T01:18:07;12.30;91.20
76099;DHT22;64828;49.956;8.636;2023-08-31T01:18:25;12.30;91.20
76099;DHT22;64828;49.956;8.636;2023-08-31T01:18:42;12.30;91.20
76099;DHT22;64828;49.956;8.636;2023-08-31T01:19:03;12.30;91.20
76099;DHT22;64828;49.956;8.636;2023-08-31T01:19:55;12.30;91.20
76099;DHT22;64828;49.956;8.636;2023-08-31T01:20:16;12.20;91.20
76099;DHT22;64828;49.956;8.636;2023-08-31T01:20:34;12.20;91.20
76099;DHT22;64828;49.956;8.636;2023-08-31T01:21:35;12.20;91.30
76099;DHT22;64828;49.956;8.636;2023-08-31T01:21:55;12.20;91.30
76099;DHT22;64828;49.956;8.636;2023-08-31T01:22:43;12.20;91.30
76099;DHT22;64828;49.956;8.636;2023-08-31T01:23:06;12.20;91.40
76099;DHT22;64828;49.956;8.636;2023-08-31T01:23:27;12.20;91.50
76099;DHT22;64828;49.956;8.636;2023-08-31T01:23:54;12.20;91.50
76099;DHT22;64828;49.956;8.636;2023-08-31T01:24:10;12.20;91.50
76099;DHT22;64828;49.956;8.636;2023-08-31T01:24:27;12.20;91.50
76099;DHT22;64828;49.956;8.636;2023-08-31T01:24:43;12.20;91.50
76099;DHT22;64828;49.956;8.636;2023-08-31T01:25:00;12.20;91.50
76099;DHT22;64828;49.956;8.636;2023-08-31T01:25:20;12.20;91.50
76099;DHT22;64828;49.956;8.636;2023-08-31T01:25:36;12.20;91.50
76099;DHT22;64828;49.956;8.636;2023-08-31T01:25:52;12.20;91.60
76099;DHT22;64828;49.956;8.636;2023-08-31T01:26:07;12.20;91.60
76099;DHT22;64828;49.956;8.636;2023-08-31T01:26:24;12.20;91.60
76099;DHT22;64828;49.956;8.636;2023-08-31T01:26:41;12.10;91.60
76099;DHT22;64828;49.956;8.636;2023-08-31T01:26:58;12.20;91.60
76099;DHT22;64828;49.956;8.636;2023-08-31T01:27:14;12.10;91.60
76099;DHT22;64828;49.956;8.636;2023-08-31T01:27:33;12.10;91.60
76099;DHT22;64828;49.956;8.636;2023-08-31T01:27:49;12.10;91.60
76099;DHT22;64828;49.956;8.636;2023-08-31T01:28:05;12.10;91.60
76099;DHT22;64828;49.956;8.636;2023-08-31T01:28:21;12.10;91.60
76099;DHT22;64828;49.956;8.636;2023-08-31T01:28:38;12.10;91.60
76099;DHT22;64828;49.956;8.636;2023-08-31T01:28:55;12.10;91.70
76099;DHT22;64828;49.956;8.636;2023-08-31T01:29:10;12.00;91.70
76099;DHT22;64828;49.956;8.636;2023-08-31T01:29:26;12.10;91.70
76099;DHT22;64828;49.956;8.636;2023-08-31T01:29:44;12.00;91.70
76099;DHT22;64828;49.956;8.636;2023-08-31T01:30:00;12.10;91.70
76099;DHT22;64828;49.956;8.636;2023-08-31T01:30:15;12.00;91.70
76099;DHT22;64828;49.956;8.636;2023-08-31T01:30:31;12.00;91.70
76099;DHT22;64828;49.956;8.636;2023-08-31T01:30:47;12.00;91.80
76099;DHT22;64828;49.956;8.636;2023-08-31T01:31:05;12.00;91.80
76099;DHT22;64828;49.956;8.636;2023-08-31T01:31:21;12.00;91.80
76099;DHT22;64828;49.956;8.636;2023-08-31T01:31:43;12.00;91.80
76099;DHT22;64828;49.956;8.636;2023-08-31T01:32:00;12.00;91.90
76099;DHT22;64828;49.956;8.636;2023-08-31T01:32:15;12.00;91.90
76099;DHT22;64828;49.956;8.636;2023-08-31T01:32:31;12.00;91.90
76099;DHT22;64828;49.956;8.636;2023-08-31T01:32:47;12.00;91.90
76099;DHT22;64828;49.956;8.636;2023-08-31T01:33:03;12.00;91.90
76099;DHT22;64828;49.956;8.636;2023-08-31T01:33:18;12.00;91.90
76099;DHT22;64828;49.956;8.636;2023-08-31T01:33:34;12.00;92.00
76099;DHT22;64828;49.956;8.636;2023-08-31T01:33:50;12.00;92.00
76099;DHT22;64828;49.956;8.636;2023-08-31T01:34:06;12.00;92.00
76099;DHT22;64828;49.956;8.636;2023-08-31T01:34:22;12.00;92.00
76099;DHT22;64828;49.956;8.636;2023-08-31T01:34:37;12.00;92.00
76099;DHT22;64828;49.956;8.636;2023-08-31T01:34:53;11.90;92.10
76099;DHT22;64828;49.956;8.636;2023-08-31T01:35:09;11.90;92.10
76099;DHT22;64828;49.956;8.636;2023-08-31T01:35:25;12.00;92.10
76099;DHT22;64828;49.956;8.636;2023-08-31T01:35:45;11.90;92.10
76099;DHT22;64828;49.956;8.636;2023-08-31T01:36:06;11.90;92.20
76099;DHT22;64828;49.956;8.636;2023-08-31T01:36:28;11.90;92.20
76099;DHT22;64828;49.956;8.636;2023-08-31T01:36:55;11.90;92.20
76099;DHT22;64828;49.956;8.636;2023-08-31T01:37:16;11.90;92.20
76099;DHT22;64828;49.956;8.636;2023-08-31T01:37:59;11.90;92.20
76099;DHT22;64828;49.956;8.636;2023-08-31T01:38:19;11.90;92.30
76099;DHT22;64828;49.956;8.636;2023-08-31T01:38:40;11.90;92.30
76099;DHT22;64828;49.956;8.636;2023-08-31T01:39:14;11.90;92.30
76099;DHT22;64828;49.956;8.636;2023-08-31T01:39:37;11.90;92.40
76099;DHT22;64828;49.956;8.636;2023-08-31T01:40:01;11.80;92.40
76099;DHT22;64828;49.956;8.636;2023-08-31T01:40:34;11.80;92.40
76099;DHT22;64828;49.956;8.636;2023-08-31T01:41:01;11.80;92.40
76099;DHT22;64828;49.956;8.636;2023-08-31T01:41:19;11.80;92.50
76099;DHT22;64828;49.956;8.636;2023-08-31T01:41:38;11.80;92.50
76099;DHT22;64828;49.956;8.636;2023-08-31T01:41:58;11.80;92.50
76099;DHT22;64828;49.956;8.636;2023-08-31T01:42:16;11.80;92.50
76099;DHT22;64828;49.956;8.636;2023-08-31T01:42:32;11.70;92.50
76099;DHT22;64828;49.956;8.636;2023-08-31T01:42:49;11.70;92.50
76099;DHT22;64828;49.956;8.636;2023-08-31T01:43:07;11.80;92.50
76099;DHT22;64828;49.956;8.636;2023-08-31T01:43:23;11.80;92.50
76099;DHT22;64828;49.956;8.636;2023-08-31T01:43:41;11.80;92.50
76099;DHT22;64828;49.956;8.636;2023-08-31T01:43:57;11.80;92.50
76099;DHT22;64828;49.956;8.636;2023-08-31T01:44:15;11.80;92.50
76099;DHT22;64828;49.956;8.636;2023-08-31T01:44:34;11.80;92.60
76099;DHT22;64828;49.956;8.636;2023-08-31T01:44:51;11.80;92.60
76099;DHT22;64828;49.956;8.636;2023-08-31T01:45:07;11.80;92.60
76099;DHT22;64828;49.956;8.636;2023-08-31T01:45:24;11.80;92.60
76099;DHT22;64828;49.956;8.636;2023-08-31T01:45:40;11.80;92.60
76099;DHT22;64828;49.956;8.636;2023-08-31T01:45:57;11.70;92.60
76099;DHT22;64828;49.956;8.636;2023-08-31T01:46:14;11.70;92.60
76099;DHT22;64828;49.956;8.636;2023-08-31T01:46:30;11.70;92.70
76099;DHT22;64828;49.956;8.636;2023-08-31T01:46:46;11.70;92.70
76099;DHT22;64828;49.956;8.636;2023-08-31T01:47:06;11.70;92.70
76099;DHT22;64828;49.956;8.636;2023-08-31T01:47:22;11.70;92.70
76099;DHT22;64828;49.956;8.636;2023-08-31T01:47:38;11.70;92.70
76099;DHT22;64828;49.956;8.636;2023-08-31T01:47:55;11.70;92.70
76099;DHT22;64828;49.956;8.636;2023-08-31T01:48:13;11.70;92.70
76099;DHT22;64828;49.956;8.636;2023-08-31T01:48:29;11.70;92.70
76099;DHT22;64828;49.956;8.636;2023-08-31T01:48:44;11.70;92.80
76099;DHT22;64828;49.956;8.636;2023-08-31T01:49:00;11.70;92.80
76099;DHT22;64828;49.956;8.636;2023-08-31T01:49:16;11.70;92.80
76099;DHT22;64828;49.956;8.636;2023-08-31T01:49:38;11.70;92.80
76099;DHT22;64828;49.956;8.636;2023-08-31T01:49:54;11.70;92.80
76099;DHT22;64828;49.956;8.636;2023-08-31T01:50:11;11.70;92.80
76099;DHT22;64828;49.956;8.636;2023-08-31T01:50:27;11.70;92.80
76099;DHT22;64828;49.956;8.636;2023-08-31T01:50:42;11.70;92.80
76099;DHT22;64828;49.956;8.636;2023-08-31T01:50:59;11.70;92.90
76099;DHT22;64828;49.956;8.636;2023-08-31T01:51:16;11.70;92.90
76099;DHT22;64828;49.956;8.636;2023-08-31T01:51:33;11.70;92.90
76099;DHT22;64828;49.956;8.636;2023-08-31T01:51:48;11.70;92.90
76099;DHT22;64828;49.956;8.636;2023-08-31T01:52:04;11.70;92.90
76099;DHT22;64828;49.956;8.636;2023-08-31T01:52:20;11.70;92.90
76099;DHT22;64828;49.956;8.636;2023-08-31T01:52:35;11.70;92.90
76099;DHT22;64828;49.956;8.636;2023-08-31T01:52:51;11.70;92.90
76099;DHT22;64828;49.956;8.636;2023-08-31T01:53:11;11.80;92.90
76099;DHT22;64828;49.956;8.636;2023-08-31T01:53:27;11.70;93.00
76099;DHT22;64828;49.956;8.636;2023-08-31T01:53:43;11.70;93.00
76099;DHT22;64828;49.956;8.636;2023-08-31T01:53:59;11.80;93.00
76099;DHT22;64828;49.956;8.636;2023-08-31T01:54:15;11.80;93.00
76099;DHT22;64828;49.956;8.636;2023-08-31T01:54:31;11.80;93.00
76099;DHT22;64828;49.956;8.636;2023-08-31T01:54:47;11.80;93.00
76099;DHT22;64828;49.956;8.636;2023-08-31T01:55:03;11.80;93.00
76099;DHT22;64828;49.956;8.636;2023-08-31T01:55:18;11.80;93.00
76099;DHT22;64828;49.956;8.636;2023-08-31T01:55:34;11.80;93.00
76099;DHT22;64828;49.956;8.636;2023-08-31T01:55:50;11.80;93.10
76099;DHT22;64828;49.956;8.636;2023-08-31T01:56:06;11.80;93.10
76099;DHT22;64828;49.956;8.636;2023-08-31T01:56:21;11.80;93.10
76099;DHT22;64828;49.956;8.636;2023-08-31T01:56:37;11.80;93.10
76099;DHT22;64828;49.956;8.636;2023-08-31T01:56:52;11.80;93.10
76099;DHT22;64828;49.956;8.636;2023-08-31T01:57:08;11.80;93.10
76099;DHT22;64828;49.956;8.636;2023-08-31T01:57:24;11.80;93.10
76099;DHT22;64828;49.956;8.636;2023-08-31T01:57:39;11.80;93.10
76099;DHT22;64828;49.956;8.636;2023-08-31T01:57:55;11.80;93.10